createdAt,value
2023-04-23T00:01:54.836Z,5.22
2023-04-23T00:04:23.444Z,4.20
2023-04-23T00:06:51.793Z,4.82
2023-04-23T00:09:18.490Z,6.55
2023-04-23T00:11:45.395Z,5.43
2023-04-23T00:14:12.435Z,4.25
2023-04-23T00:16:40.307Z,4.03
2023-04-23T00:19:07.133Z,5.80
2023-04-23T00:21:33.999Z,4.82
2023-04-23T00:24:00.690Z,4.93
2023-04-23T00:26:27.410Z,4.97
2023-04-23T00:28:54.157Z,5.10
2023-04-23T00:31:22.575Z,5.70
2023-04-23T00:33:49.400Z,6.72
2023-04-23T00:36:16.101Z,4.85
2023-04-23T00:38:42.810Z,4.95
2023-04-23T00:41:09.645Z,4.20
2023-04-23T00:43:36.784Z,4.80
2023-04-23T00:46:03.794Z,4.93
2023-04-23T00:48:31.211Z,4.78
2023-04-23T00:51:00.575Z,4.95
2023-04-23T00:53:27.457Z,6.28
2023-04-23T00:55:54.596Z,4.88
2023-04-23T00:58:22.305Z,6.63
2023-04-23T01:00:51.622Z,4.60
2023-04-23T01:03:21.785Z,4.53
2023-04-23T01:05:50.042Z,5.88
2023-04-23T01:08:17.625Z,4.57
2023-04-23T01:10:45.836Z,4.10
2023-04-23T01:13:14.029Z,4.57
2023-04-23T01:15:44.954Z,5.68
2023-04-23T01:18:12.779Z,7.03
2023-04-23T01:20:39.756Z,5.85
2023-04-23T01:23:06.858Z,3.60
2023-04-23T01:25:34.205Z,4.45
2023-04-23T01:28:01.437Z,4.30
2023-04-23T01:30:28.388Z,4.75
2023-04-23T01:32:56.238Z,6.43
2023-04-23T01:35:24.098Z,3.85
2023-04-23T01:37:52.520Z,4.20
2023-04-23T01:40:20.847Z,3.50
2023-04-23T01:42:49.068Z,4.28
2023-04-23T01:45:17.633Z,3.97
2023-04-23T01:47:44.544Z,5.18
2023-04-23T01:50:11.439Z,4.77
2023-04-23T01:52:38.671Z,4.93
2023-04-23T01:55:06.008Z,6.45
2023-04-23T01:57:33.054Z,5.30
2023-04-23T02:00:08.827Z,4.20
2023-04-23T02:02:36.243Z,4.10
2023-04-23T02:05:04.670Z,5.95
2023-04-23T02:07:33.770Z,4.35
2023-04-23T02:10:01.740Z,4.07
2023-04-23T02:12:28.546Z,4.90
2023-04-23T02:14:55.391Z,4.00
2023-04-23T02:17:23.062Z,4.32
2023-04-23T02:19:50.362Z,6.95
2023-04-23T02:22:17.860Z,4.55
2023-04-23T02:24:44.605Z,4.95
2023-04-23T02:27:11.513Z,5.75
2023-04-23T02:29:38.296Z,4.95
2023-04-23T02:32:05.157Z,3.83
2023-04-23T02:34:31.815Z,4.73
2023-04-23T02:36:58.570Z,4.78
2023-04-23T02:39:25.620Z,3.78
2023-04-23T02:41:52.307Z,4.22
2023-04-23T02:44:19.125Z,4.20
2023-04-23T02:46:46.562Z,3.88
2023-04-23T02:49:14.626Z,3.67
2023-04-23T02:51:41.425Z,4.70
2023-04-23T02:54:08.151Z,5.30
2023-04-23T02:56:34.936Z,4.53
2023-04-23T02:59:01.772Z,3.92
2023-04-23T03:01:28.578Z,6.20
2023-04-23T03:03:55.825Z,4.95
2023-04-23T03:06:22.732Z,4.45
2023-04-23T03:08:49.402Z,6.80
2023-04-23T03:11:16.173Z,4.50
2023-04-23T03:13:42.887Z,4.55
2023-04-23T03:16:09.617Z,5.97
2023-04-23T03:18:36.296Z,4.97
2023-04-23T03:21:03.000Z,6.45
2023-04-23T03:23:29.877Z,5.10
2023-04-23T03:25:57.499Z,6.28
2023-04-23T03:28:24.527Z,4.80
2023-04-23T03:30:51.224Z,5.05
2023-04-23T03:33:17.967Z,5.50
2023-04-23T03:35:46.886Z,4.53
2023-04-23T03:38:14.030Z,5.35
2023-04-23T03:40:40.658Z,4.25
2023-04-23T03:43:07.349Z,7.32
2023-04-23T03:45:33.963Z,5.30
2023-04-23T03:48:00.746Z,4.95
2023-04-23T03:50:27.479Z,6.07
2023-04-23T03:52:54.134Z,5.07
2023-04-23T03:55:21.128Z,6.82
2023-04-23T03:57:47.867Z,5.13
2023-04-23T04:00:14.755Z,5.53
2023-04-23T04:02:41.657Z,4.27
2023-04-23T04:05:11.329Z,3.97
2023-04-23T04:07:38.574Z,4.82
2023-04-23T04:10:06.809Z,5.68
2023-04-23T04:12:33.489Z,5.78
2023-04-23T04:15:00.156Z,6.23
2023-04-23T04:17:26.944Z,8.02
2023-04-23T04:19:53.590Z,5.32
2023-04-23T04:22:20.614Z,5.47
2023-04-23T04:24:47.503Z,4.70
2023-04-23T04:27:14.838Z,5.28
2023-04-23T04:29:41.547Z,4.95
2023-04-23T04:32:09.805Z,5.80
2023-04-23T04:34:38.337Z,5.50
2023-04-23T04:37:05.414Z,4.72
2023-04-23T04:39:32.105Z,4.80
2023-04-23T04:41:59.868Z,5.43
2023-04-23T04:44:26.612Z,4.68
2023-04-23T04:46:53.820Z,4.95
2023-04-23T04:49:21.858Z,4.70
2023-04-23T04:51:48.832Z,4.65
2023-04-23T04:54:15.713Z,4.68
2023-04-23T04:56:42.373Z,5.50
2023-04-23T04:59:09.066Z,4.35
2023-04-23T05:01:37.117Z,4.00
2023-04-23T05:04:04.374Z,3.97
2023-04-23T05:06:32.384Z,4.78
2023-04-23T05:08:59.212Z,3.85
2023-04-23T05:11:25.987Z,3.33
2023-04-23T05:13:52.824Z,3.60
2023-04-23T05:16:19.688Z,2.85
2023-04-23T05:18:46.581Z,3.30
2023-04-23T05:21:14.332Z,3.65
2023-04-23T05:23:41.064Z,3.60
2023-04-23T05:26:07.828Z,3.95
2023-04-23T05:28:34.525Z,4.80
2023-04-23T05:31:01.271Z,3.50
2023-04-23T05:33:33.402Z,4.38
2023-04-23T05:36:06.377Z,3.25
2023-04-23T05:38:33.204Z,3.92
2023-04-23T05:41:00.019Z,3.92
2023-04-23T05:43:26.717Z,4.20
2023-04-23T05:45:53.421Z,4.72
2023-04-23T05:48:20.195Z,3.13
2023-04-23T05:50:46.913Z,2.80
2023-04-23T05:53:13.622Z,3.10
2023-04-23T05:55:40.256Z,3.60
2023-04-23T05:58:07.080Z,4.37
2023-04-23T06:00:35.347Z,3.92
2023-04-23T06:03:02.232Z,3.85
2023-04-23T06:05:29.158Z,4.80
2023-04-23T06:07:56.065Z,3.80
2023-04-23T06:10:23.185Z,4.38
2023-04-23T06:12:49.962Z,5.20
2023-04-23T06:15:16.616Z,5.22
2023-04-23T06:17:43.340Z,4.22
2023-04-23T06:20:11.772Z,4.03
2023-04-23T06:22:38.815Z,3.80
2023-04-23T06:25:05.938Z,3.30
2023-04-23T06:27:33.687Z,4.05
2023-04-23T06:30:00.438Z,3.95
2023-04-23T06:32:27.157Z,3.80
2023-04-23T06:35:00.707Z,3.10
2023-04-23T06:37:30.626Z,3.90
2023-04-23T06:39:58.804Z,4.30
2023-04-23T06:42:25.791Z,3.70
2023-04-23T06:44:52.503Z,4.15
2023-04-23T06:47:19.972Z,4.35
2023-04-23T06:49:46.736Z,3.70
2023-04-23T06:52:13.510Z,3.50
2023-04-23T06:54:40.389Z,4.18
2023-04-23T06:57:07.276Z,3.47
2023-04-23T06:59:33.994Z,2.90
2023-04-23T07:02:00.761Z,3.72
2023-04-23T07:04:27.542Z,3.65
2023-04-23T07:06:55.003Z,4.18
2023-04-23T07:09:21.766Z,2.65
2023-04-23T07:11:48.438Z,2.83
2023-04-23T07:14:15.123Z,2.75
2023-04-23T07:16:41.843Z,4.22
2023-04-23T07:19:08.570Z,3.57
2023-04-23T07:21:35.885Z,3.65
2023-04-23T07:24:06.797Z,3.60
2023-04-23T07:26:34.492Z,2.50
2023-04-23T07:29:01.507Z,2.90
2023-04-23T07:31:28.601Z,2.40
2023-04-23T07:33:56.198Z,2.10
2023-04-23T07:36:23.213Z,2.15
2023-04-23T07:38:50.890Z,3.28
2023-04-23T07:41:18.245Z,3.28
2023-04-23T07:43:45.512Z,3.92
2023-04-23T07:46:12.448Z,3.58
2023-04-23T07:48:39.333Z,3.17
2023-04-23T07:51:06.652Z,2.92
2023-04-23T07:53:33.518Z,5.40
2023-04-23T07:56:00.967Z,4.03
2023-04-23T07:58:27.728Z,3.40
2023-04-23T08:00:54.462Z,2.37
2023-04-23T08:03:22.262Z,2.47
2023-04-23T08:05:49.089Z,1.87
2023-04-23T08:08:15.897Z,3.25
2023-04-23T08:10:42.880Z,4.15
2023-04-23T08:13:09.567Z,1.88
2023-04-23T08:15:36.413Z,1.55
2023-04-23T08:18:04.386Z,1.60
2023-04-23T08:20:32.389Z,1.80
2023-04-23T08:22:59.424Z,1.73
2023-04-23T08:25:26.231Z,1.48
2023-04-23T08:27:53.138Z,1.50
2023-04-23T08:30:19.950Z,1.25
2023-04-23T08:32:50.928Z,1.05
2023-04-23T08:35:17.875Z,1.60
2023-04-23T08:37:44.631Z,1.98
2023-04-23T08:40:11.630Z,1.10
2023-04-23T08:42:44.084Z,1.80
2023-04-23T08:45:12.165Z,1.65
2023-04-23T08:47:43.178Z,1.00
2023-04-23T08:50:11.781Z,1.10
2023-04-23T08:52:42.455Z,1.13
2023-04-23T08:55:10.792Z,1.10
2023-04-23T08:57:40.717Z,2.07
2023-04-23T09:00:10.951Z,1.20
2023-04-23T09:02:40.479Z,1.30
2023-04-23T09:05:08.446Z,1.15
2023-04-23T09:07:35.848Z,2.17
2023-04-23T09:10:03.954Z,1.95
2023-04-23T09:12:30.825Z,1.20
2023-04-23T09:14:57.573Z,1.85
2023-04-23T09:17:29.291Z,1.10
2023-04-23T09:19:56.015Z,1.95
2023-04-23T09:22:38.875Z,1.77
2023-04-23T09:25:07.779Z,1.23
2023-04-23T09:27:34.763Z,1.90
2023-04-23T09:30:04.921Z,1.40
2023-04-23T09:32:33.686Z,1.40
2023-04-23T09:35:03.500Z,1.30
2023-04-23T09:37:30.735Z,1.20
2023-04-23T09:39:59.894Z,1.50
2023-04-23T09:42:28.705Z,1.30
2023-04-23T09:44:59.144Z,1.30
2023-04-23T09:47:26.260Z,2.10
2023-04-23T09:49:53.209Z,1.30
2023-04-23T09:52:21.016Z,1.02
2023-04-23T09:54:47.833Z,1.30
2023-04-23T09:57:14.718Z,1.60
2023-04-23T09:59:48.882Z,2.00
2023-04-23T10:02:18.943Z,1.83
2023-04-23T10:04:52.022Z,1.30
2023-04-23T10:07:20.574Z,2.10
2023-04-23T10:09:48.157Z,1.27
2023-04-23T10:14:46.649Z,1.52
2023-04-23T10:17:16.980Z,2.05
2023-04-23T10:19:44.861Z,1.70
2023-04-23T10:24:48.716Z,1.30
2023-04-23T10:27:32.830Z,3.00
2023-04-23T10:30:06.555Z,1.60
2023-04-23T10:32:34.999Z,1.63
2023-04-23T10:35:01.942Z,1.60
2023-04-23T10:37:29.449Z,1.40
2023-04-23T10:40:04.188Z,1.40
2023-04-23T10:42:31.482Z,1.97
2023-04-23T10:45:04.704Z,1.15
2023-04-23T10:47:37.699Z,2.00
2023-04-23T10:50:22.591Z,1.40
2023-04-23T10:52:58.067Z,1.30
2023-04-23T10:55:32.858Z,2.10
2023-04-23T10:58:02.337Z,2.22
2023-04-23T11:00:46.824Z,3.60
2023-04-23T11:03:43.426Z,1.38
2023-04-23T11:06:39.143Z,1.55
2023-04-23T11:09:31.080Z,1.92
2023-04-23T11:11:59.966Z,1.48
2023-04-23T11:14:46.601Z,1.83
2023-04-23T11:17:14.672Z,1.30
2023-04-23T11:19:43.203Z,1.93
2023-04-23T11:22:14.173Z,1.63
2023-04-23T11:24:43.282Z,1.40
2023-04-23T11:27:11.587Z,3.67
2023-04-23T11:29:40.590Z,1.48
2023-04-23T11:32:10.958Z,1.80
2023-04-23T11:34:40.413Z,1.40
2023-04-23T11:37:10.814Z,1.10
2023-04-23T11:39:38.250Z,2.10
2023-04-23T11:42:06.396Z,1.30
2023-04-23T11:44:33.673Z,1.02
2023-04-23T11:47:02.421Z,1.50
2023-04-23T11:49:29.273Z,0.90
2023-04-23T11:51:59.115Z,1.83
2023-04-23T11:54:28.147Z,1.75
2023-04-23T11:56:55.387Z,1.77
2023-04-23T11:59:23.069Z,1.90
2023-04-23T12:01:51.578Z,1.98
2023-04-23T12:04:21.415Z,1.35
2023-04-23T12:06:49.535Z,1.30
2023-04-23T12:09:18.556Z,2.05
2023-04-23T12:11:45.860Z,2.05
2023-04-23T12:14:14.803Z,1.10
2023-04-23T12:16:43.686Z,1.25
2023-04-23T12:19:15.107Z,1.10
2023-04-23T12:21:49.678Z,1.20
2023-04-23T12:24:16.593Z,2.40
2023-04-23T12:26:44.319Z,1.90
2023-04-23T12:29:13.742Z,1.80
2023-04-23T12:31:42.976Z,1.00
2023-04-23T12:34:10.352Z,2.78
2023-04-23T12:36:38.421Z,1.30
2023-04-23T12:39:29.627Z,1.40
2023-04-23T12:42:02.588Z,1.35
2023-04-23T12:44:29.783Z,0.90
2023-04-23T12:46:59.674Z,1.02
2023-04-23T12:49:27.372Z,0.88
2023-04-23T12:51:57.593Z,3.28
2023-04-23T12:54:26.506Z,0.80
2023-04-23T12:56:53.722Z,0.77
2023-04-23T12:59:20.538Z,1.02
2023-04-23T13:01:47.700Z,0.73
2023-04-23T13:04:14.805Z,0.80
2023-04-23T13:06:42.089Z,0.90
2023-04-23T13:09:10.334Z,1.70
2023-04-23T13:11:38.707Z,1.48
2023-04-23T13:14:06.133Z,0.77
2023-04-23T13:16:33.080Z,0.75
2023-04-23T13:19:00.800Z,1.02
2023-04-23T13:21:28.060Z,1.10
2023-04-23T13:23:54.709Z,0.70
2023-04-23T13:26:21.525Z,1.55
2023-04-23T13:28:48.206Z,0.70
2023-04-23T13:31:15.018Z,0.90
2023-04-23T13:33:42.303Z,0.80
2023-04-23T13:36:09.589Z,0.98
2023-04-23T13:38:36.354Z,0.90
2023-04-23T13:41:03.123Z,0.80
2023-04-23T13:43:29.843Z,0.90
2023-04-23T13:45:56.690Z,1.13
2023-04-23T13:48:28.533Z,1.13
2023-04-23T13:50:56.090Z,1.50
2023-04-23T13:53:22.865Z,1.88
2023-04-23T13:55:49.735Z,1.05
2023-04-23T13:58:19.742Z,1.15
2023-04-23T14:00:46.649Z,0.90
2023-04-23T14:03:13.767Z,1.08
2023-04-23T14:05:40.618Z,1.00
2023-04-23T14:08:07.420Z,1.67
2023-04-23T14:10:35.341Z,0.80
2023-04-23T14:13:04.650Z,1.40
2023-04-23T14:15:31.458Z,1.00
2023-04-23T14:17:59.576Z,1.45
2023-04-23T14:20:26.458Z,1.50
2023-04-23T14:23:01.759Z,0.80
2023-04-23T14:25:39.953Z,1.20
2023-04-23T14:28:27.528Z,1.10
2023-04-23T14:30:56.933Z,1.45
2023-04-23T14:33:24.329Z,1.42
2023-04-23T14:35:51.023Z,0.98
2023-04-23T14:38:18.257Z,1.10
2023-04-23T14:40:45.185Z,0.82
2023-04-23T14:43:15.375Z,1.23
2023-04-23T14:45:42.913Z,1.58
2023-04-23T14:48:15.639Z,1.90
2023-04-23T14:50:48.165Z,1.20
2023-04-23T14:53:14.941Z,1.60
2023-04-23T14:55:43.271Z,1.10
2023-04-23T14:58:10.060Z,1.20
2023-04-23T15:00:36.783Z,1.20
2023-04-23T15:03:09.942Z,1.00
2023-04-23T15:05:37.779Z,1.45
2023-04-23T15:08:04.740Z,1.60
2023-04-23T15:10:31.597Z,0.90
2023-04-23T15:13:13.948Z,0.98
2023-04-23T15:16:00.129Z,0.88
2023-04-23T15:18:27.117Z,1.90
2023-04-23T15:20:53.857Z,8.18
2023-04-23T15:23:21.619Z,1.15
2023-04-23T15:25:49.616Z,1.00
2023-04-23T15:28:16.427Z,1.33
2023-04-23T15:30:44.830Z,1.50
2023-04-23T15:33:11.761Z,1.80
2023-04-23T15:35:38.466Z,0.95
2023-04-23T15:38:05.272Z,1.50
2023-04-23T15:40:33.324Z,0.90
2023-04-23T15:43:00.027Z,0.93
2023-04-23T15:45:26.785Z,1.20
2023-04-23T15:47:53.500Z,1.33
2023-04-23T15:50:23.015Z,1.30
2023-04-23T15:52:50.541Z,1.20
2023-04-23T15:55:17.984Z,0.90
2023-04-23T15:57:44.677Z,0.82
2023-04-23T16:00:12.655Z,1.55
2023-04-23T16:02:39.531Z,0.90
2023-04-23T16:05:06.602Z,1.20
2023-04-23T16:07:33.427Z,1.57
2023-04-23T16:10:00.150Z,1.80
2023-04-23T16:12:26.836Z,1.27
2023-04-23T16:14:53.579Z,1.03
2023-04-23T16:17:20.385Z,1.80
2023-04-23T16:19:47.188Z,1.30
2023-04-23T16:22:15.927Z,1.20
2023-04-23T16:24:42.712Z,1.30
2023-04-23T16:27:10.792Z,1.20
2023-04-23T16:29:38.710Z,1.40
2023-04-23T16:32:06.972Z,2.22
2023-04-23T16:34:34.065Z,1.10
2023-04-23T16:37:00.821Z,1.98
2023-04-23T16:39:27.537Z,2.97
2023-04-23T16:41:54.180Z,1.50
2023-04-23T16:44:20.964Z,2.80
2023-04-23T16:46:47.878Z,1.60
2023-04-23T16:49:17.647Z,1.42
2023-04-23T16:51:50.238Z,1.93
2023-04-23T16:54:19.212Z,1.20
2023-04-23T16:56:46.267Z,0.88
2023-04-23T16:59:15.237Z,1.77
2023-04-23T17:01:41.989Z,0.80
2023-04-23T17:04:08.844Z,0.98
2023-04-23T17:06:36.031Z,1.42
2023-04-23T17:09:04.900Z,1.93
2023-04-23T17:11:32.012Z,1.55
2023-04-23T17:14:07.368Z,1.33
2023-04-23T17:16:34.153Z,3.28
2023-04-23T17:19:03.669Z,1.60
2023-04-23T17:21:31.816Z,3.00
2023-04-23T17:23:58.599Z,2.00
2023-04-23T17:26:25.374Z,1.40
2023-04-23T17:28:52.079Z,1.88
2023-04-23T17:31:19.119Z,1.80
2023-04-23T17:33:49.010Z,1.83
2023-04-23T17:36:16.900Z,1.63
2023-04-23T17:38:43.741Z,2.77
2023-04-23T17:41:10.486Z,1.50
2023-04-23T17:43:37.196Z,1.83
2023-04-23T17:46:03.920Z,1.83
2023-04-23T17:48:30.740Z,2.00
2023-04-23T17:50:57.446Z,1.98
2023-04-23T17:53:24.127Z,1.30
2023-04-23T17:55:50.854Z,3.30
2023-04-23T17:58:19.185Z,2.85
2023-04-23T18:00:46.120Z,2.10
2023-04-23T18:03:16.551Z,1.90
2023-04-23T18:05:43.575Z,1.98
2023-04-23T18:08:10.284Z,1.70
2023-04-23T18:10:37.110Z,3.05
2023-04-23T18:13:04.686Z,2.60
2023-04-23T18:15:32.291Z,2.03
2023-04-23T18:17:59.272Z,2.25
2023-04-23T18:20:26.629Z,4.30
2023-04-23T18:22:54.349Z,3.53
2023-04-23T18:25:21.212Z,2.50
2023-04-23T18:27:48.534Z,2.88
2023-04-23T18:30:15.469Z,3.10
2023-04-23T18:32:47.501Z,8.93
2023-04-23T18:35:14.292Z,2.92
2023-04-23T18:37:43.945Z,2.10
2023-04-23T18:40:11.534Z,0.60
2023-04-23T18:42:38.240Z,0.10
2023-04-23T18:45:05.336Z,0.17
2023-04-23T18:47:37.400Z,0.20
2023-04-23T18:50:09.717Z,0.10
2023-04-23T18:52:36.419Z,0.10
2023-04-23T18:55:03.172Z,0.20
2023-04-23T18:57:29.843Z,0.20
2023-04-23T18:59:56.628Z,0.15
2023-04-23T19:02:34.732Z,0.00
2023-04-23T19:05:02.596Z,0.00
2023-04-23T19:07:29.351Z,0.10
2023-04-23T19:09:56.045Z,0.10
2023-04-23T19:12:22.745Z,0.10
2023-04-23T19:14:49.400Z,0.00
2023-04-23T19:17:18.485Z,0.10
2023-04-23T19:19:46.057Z,0.00
2023-04-23T19:22:12.775Z,0.10
2023-04-23T19:24:39.468Z,0.10
2023-04-23T19:27:07.153Z,0.10
2023-04-23T19:29:33.836Z,0.00
2023-04-23T19:32:00.747Z,0.10
2023-04-23T19:34:27.436Z,0.00
2023-04-23T19:36:54.140Z,0.10
2023-04-23T19:39:23.411Z,0.10
2023-04-23T19:41:50.228Z,0.00
2023-04-23T19:44:16.968Z,0.00
2023-04-23T19:46:43.723Z,0.05
2023-04-23T19:49:10.432Z,0.15
2023-04-23T19:51:38.040Z,0.10
2023-04-23T19:54:05.114Z,0.10
2023-04-23T19:56:31.992Z,0.03
2023-04-23T19:58:58.732Z,0.00
2023-04-23T20:01:28.237Z,0.10
2023-04-23T20:03:55.680Z,0.20
2023-04-23T20:06:22.461Z,0.10
2023-04-23T20:09:07.452Z,0.10
2023-04-23T20:11:35.672Z,0.10
2023-04-23T20:14:02.868Z,0.10
2023-04-23T20:16:30.102Z,0.10
2023-04-23T20:18:57.675Z,0.30
2023-04-23T20:21:24.784Z,0.10
2023-04-23T20:23:51.524Z,0.00
2023-04-23T20:26:19.869Z,0.00
2023-04-23T20:28:48.251Z,0.08
2023-04-23T20:31:15.540Z,1.00
2023-04-23T20:33:42.245Z,0.03
2023-04-23T20:36:10.728Z,0.00
2023-04-23T20:38:39.008Z,1.10
2023-04-23T20:41:09.448Z,0.20
2023-04-23T20:43:40.357Z,0.10
2023-04-23T20:46:07.117Z,0.13
2023-04-23T20:48:33.883Z,0.40
2023-04-23T20:51:00.829Z,0.10
2023-04-23T20:53:28.589Z,0.00
2023-04-23T20:55:57.062Z,0.00
2023-04-23T20:58:24.228Z,0.00
2023-04-23T21:00:51.317Z,0.15
2023-04-23T21:03:18.942Z,0.10
2023-04-23T21:05:45.904Z,8.20
2023-04-23T21:08:13.871Z,0.17
2023-04-23T21:10:41.434Z,1.00
2023-04-23T21:13:10.830Z,0.00
2023-04-23T21:15:38.441Z,0.00
2023-04-23T21:18:05.749Z,0.10
2023-04-23T21:20:32.616Z,0.10
2023-04-23T21:22:59.285Z,0.10
2023-04-23T21:25:26.764Z,0.03
2023-04-23T21:27:56.091Z,0.00
2023-04-23T21:30:29.890Z,0.00
2023-04-23T21:32:56.554Z,0.10
2023-04-23T21:35:23.308Z,0.10
2023-04-23T21:37:50.014Z,0.10
2023-04-23T21:40:16.723Z,0.10
2023-04-23T21:42:44.802Z,0.00
2023-04-23T21:45:11.924Z,0.10
2023-04-23T21:47:38.614Z,0.10
2023-04-23T21:50:06.048Z,0.10
2023-04-23T21:52:32.795Z,0.10
2023-04-23T21:54:59.546Z,0.10
2023-04-23T21:57:26.244Z,0.10
2023-04-23T21:59:52.906Z,0.05
2023-04-23T22:02:19.718Z,0.70
2023-04-23T22:04:46.547Z,0.10
2023-04-23T22:07:13.471Z,0.10
2023-04-23T22:09:40.903Z,0.10
2023-04-23T22:12:08.755Z,0.00
2023-04-23T22:14:35.632Z,0.00
2023-04-23T22:17:03.396Z,0.10
2023-04-23T22:19:31.335Z,0.10
2023-04-23T22:21:58.097Z,0.10
2023-04-23T22:24:24.889Z,0.03
2023-04-23T22:26:51.650Z,0.00
2023-04-23T22:29:18.402Z,0.00
2023-04-23T22:31:45.145Z,0.30
2023-04-23T22:34:11.890Z,0.10
2023-04-23T22:36:40.482Z,0.10
2023-04-23T22:39:07.264Z,0.10
2023-04-23T22:41:36.433Z,0.10
2023-04-23T22:44:03.150Z,0.10
2023-04-23T22:46:29.930Z,0.10
2023-04-23T22:48:56.650Z,0.30
2023-04-23T22:51:23.558Z,0.10
2023-04-23T22:53:50.542Z,0.03
2023-04-23T22:56:17.257Z,0.00
2023-04-23T22:58:43.915Z,0.20
2023-04-23T23:01:11.001Z,0.10
2023-04-23T23:03:37.987Z,0.10
2023-04-23T23:06:05.088Z,0.10
2023-04-23T23:08:31.742Z,0.00
2023-04-23T23:10:58.478Z,0.50
2023-04-23T23:13:25.680Z,0.10
2023-04-23T23:15:52.383Z,0.40
2023-04-23T23:18:19.100Z,0.10
2023-04-23T23:20:45.974Z,0.00
2023-04-23T23:23:12.801Z,0.20
2023-04-23T23:25:39.547Z,0.20
2023-04-23T23:28:06.270Z,0.20
2023-04-23T23:30:34.263Z,0.10
2023-04-23T23:33:01.062Z,0.10
2023-04-23T23:35:27.796Z,0.00
2023-04-23T23:37:54.492Z,0.03
2023-04-23T23:40:21.225Z,0.00
2023-04-23T23:42:47.880Z,0.30
2023-04-23T23:45:14.627Z,0.10
2023-04-23T23:47:41.464Z,0.10
2023-04-23T23:50:08.770Z,0.00
2023-04-23T23:52:35.457Z,0.00
2023-04-23T23:55:02.173Z,0.10
2023-04-23T23:57:28.845Z,0.10
2023-04-23T23:59:56.054Z,0.10
